Time;durP1;ratioP1;P1;durP2;ratioP2;P2;SDS_P1;SDS_P2;PMS_P1;PMS_P2;Temp;Humidity;BMP_temperature;BMP_pressure;BME280_temperature;BME280_humidity;BME280_pressure;Samples;Min_cycle;Max_cycle;Signal;HPM_P1;HPM_P2
2022/09/11 00:01:54;;;;;;;13.02;5.90;;;;;;;22.64;52.53;101469.16;4971488;28;20015;-65
2022/09/11 00:04:19;;;;;;;9.70;6.47;;;;;;;22.63;52.78;101468.28;4970509;28;20063;-66
2022/09/11 00:06:45;;;;;;;12.02;6.53;;;;;;;22.67;52.48;101471.53;4969432;28;20022;-65
2022/09/11 00:09:10;;;;;;;13.13;6.05;;;;;;;22.67;52.70;101468.78;4968889;28;20008;-65
2022/09/11 00:11:40;;;;;;;10.25;5.68;;;;;;;22.68;51.81;101465.00;4970579;28;20019;-67
2022/09/11 00:14:06;;;;;;;9.35;5.70;;;;;;;22.68;51.76;101467.72;4970652;28;20019;-68
2022/09/11 00:16:35;;;;;;;8.90;6.15;;;;;;;22.67;52.59;101468.78;4968961;28;20074;-67
2022/09/11 00:19:04;;;;;;;11.13;6.40;;;;;;;22.67;52.98;101472.34;4969727;28;20022;-67
2022/09/11 00:21:29;;;;;;;11.40;6.15;;;;;;;22.67;52.22;101461.41;4970884;28;20027;-65
2022/09/11 00:23:55;;;;;;;10.55;6.28;;;;;;;22.68;52.99;101467.72;4969583;28;20075;-67
2022/09/11 00:26:20;;;;;;;18.90;6.18;;;;;;;22.66;52.26;101456.16;4969311;28;20038;-67
2022/09/11 00:28:46;;;;;;;10.45;5.88;;;;;;;22.68;52.02;101460.38;4970514;28;20031;-67
2022/09/11 00:31:14;;;;;;;10.27;6.53;;;;;;;22.69;52.87;101466.72;4968376;28;20062;-66
2022/09/11 00:33:40;;;;;;;10.02;6.50;;;;;;;22.69;51.59;101469.44;4969495;28;20046;-67
2022/09/11 00:36:09;;;;;;;13.27;6.47;;;;;;;22.66;52.67;101467.09;4970921;28;20043;-67
2022/09/11 00:38:36;;;;;;;12.05;5.93;;;;;;;22.65;51.95;101470.84;4969494;28;20022;-67
2022/09/11 00:41:03;;;;;;;14.30;6.38;;;;;;;22.64;51.81;101474.63;4969636;28;20027;-67
2022/09/11 00:43:47;;;;;;;11.98;5.97;;;;;;;22.62;52.47;101472.91;4970854;28;20007;-67
2022/09/11 00:46:13;;;;;;;12.35;6.18;;;;;;;22.60;51.85;101469.53;4970499;28;20015;-66
2022/09/11 00:48:38;;;;;;;9.68;5.90;;;;;;;22.59;52.84;101477.88;4969485;28;20019;-67
2022/09/11 00:51:03;;;;;;;9.07;5.70;;;;;;;22.59;51.84;101473.28;4968784;28;20039;-66
2022/09/11 00:53:32;;;;;;;10.85;6.47;;;;;;;22.59;52.29;101478.75;4970789;28;20020;-68
2022/09/11 00:56:01;;;;;;;12.65;6.63;;;;;;;22.59;52.87;101478.75;4969380;28;20016;-67
2022/09/11 00:58:29;;;;;;;16.48;7.15;;;;;;;22.58;52.47;101477.03;4968374;28;20034;-67
2022/09/11 01:00:55;;;;;;;11.25;6.68;;;;;;;22.57;51.68;101469.06;4971829;28;20015;-67
2022/09/11 01:03:22;;;;;;;15.70;7.03;;;;;;;22.55;52.03;101471.13;4974010;28;20064;-67
2022/09/11 01:05:48;;;;;;;13.57;7.25;;;;;;;22.53;52.35;101476.78;4988002;28;20015;-67
2022/09/11 01:08:14;;;;;;;11.75;6.53;;;;;;;22.52;52.01;101477.81;4974288;28;20046;-67
2022/09/11 01:11:12;;;;;;;12.35;6.50;;;;;;;22.51;52.29;101481.59;4972980;28;20015;-66
2022/09/11 01:13:50;;;;;;;10.27;6.20;;;;;;;22.51;52.99;101480.72;5004970;28;20011;-67
2022/09/11 01:16:20;;;;;;;10.18;6.65;;;;;;;22.50;52.48;101489.97;4972874;28;20079;-66
2022/09/11 01:18:52;;;;;;;16.85;7.63;;;;;;;22.49;51.93;101491.88;4974998;28;20050;-66
2022/09/11 01:21:40;;;;;;;15.05;6.85;;;;;;;22.47;51.99;101496.66;4973839;28;20023;-67
2022/09/11 01:24:39;;;;;;;10.57;6.03;;;;;;;22.47;52.40;101501.28;4957772;28;20016;-66
2022/09/11 01:27:24;;;;;;;11.55;6.80;;;;;;;22.44;51.95;101507.97;4973605;28;20032;-67
2022/09/11 01:30:00;;;;;;;13.73;7.32;;;;;;;22.41;52.92;101507.50;4973941;28;20055;-67
2022/09/11 01:32:38;;;;;;;14.82;7.45;;;;;;;22.40;51.90;101505.78;4973939;28;20270;-67
2022/09/11 01:35:20;;;;;;;15.75;7.68;;;;;;;22.39;52.06;101507.66;4974100;28;20035;-65
2022/09/11 01:37:57;;;;;;;11.55;7.00;;;;;;;22.38;52.76;101502.41;4973499;28;20030;-67
2022/09/11 01:40:35;;;;;;;12.80;6.60;;;;;;;22.37;51.66;101507.03;4958227;28;20011;-66
2022/09/11 01:43:07;;;;;;;14.18;6.68;;;;;;;22.36;52.38;101505.31;4972716;28;20012;-67
2022/09/11 01:45:33;;;;;;;13.83;6.60;;;;;;;22.34;52.05;101504.66;4971656;28;20018;-66
2022/09/11 01:47:59;;;;;;;15.20;7.05;;;;;;;22.34;51.95;101506.53;4972255;28;20044;-67
2022/09/11 01:50:25;;;;;;;14.20;7.47;;;;;;;22.33;52.09;101513.06;4973091;28;20012;-67
2022/09/11 01:52:55;;;;;;;11.93;7.68;;;;;;;22.34;52.81;101512.00;4973816;28;20015;-68
2022/09/11 01:55:25;;;;;;;13.75;7.63;;;;;;;22.34;52.18;101522.94;4972370;28;20044;-67
2022/09/11 01:58:02;;;;;;;16.80;7.80;;;;;;;22.33;52.29;101522.09;4970607;28;20018;-67
2022/09/11 02:00:28;;;;;;;12.10;7.05;;;;;;;22.34;52.80;101518.31;4973019;28;20266;-67
2022/09/11 02:03:17;;;;;;;14.75;7.82;;;;;;;22.35;51.83;101520.03;4955266;29;20012;-66
2022/09/11 02:05:47;;;;;;;14.38;7.95;;;;;;;22.35;52.75;101517.28;4973126;28;20053;-66
2022/09/11 02:08:15;;;;;;;13.68;7.75;;;;;;;22.36;52.07;101518.97;4972983;28;20035;-66
2022/09/11 02:11:06;;;;;;;16.02;8.75;;;;;;;22.36;52.03;101516.25;4972040;28;20007;-66
2022/09/11 02:13:54;;;;;;;15.18;8.15;;;;;;;22.39;53.05;101526.78;4982921;28;20067;-66
2022/09/11 02:16:48;;;;;;;15.98;8.85;;;;;;;22.39;52.27;101518.59;4972760;28;20008;-68
2022/09/11 02:19:16;;;;;;;21.65;8.30;;;;;;;22.41;52.19;101524.72;4971459;29;20019;-65
2022/09/11 02:21:43;;;;;;;17.80;8.70;;;;;;;22.44;52.25;101521.63;4973982;28;20046;-67
2022/09/11 02:24:09;;;;;;;15.52;8.65;;;;;;;22.44;52.02;101529.81;4986828;28;20095;-67
2022/09/11 02:26:38;;;;;;;14.52;7.93;;;;;;;22.46;52.76;101527.75;4972281;28;20011;-65
2022/09/11 02:29:04;;;;;;;12.38;8.02;;;;;;;22.49;52.63;101526.50;4972384;28;20007;-67
2022/09/11 02:31:30;;;;;;;12.65;8.13;;;;;;;22.50;53.20;101529.03;4970750;28;20042;-67
2022/09/11 02:33:56;;;;;;;13.38;7.82;;;;;;;22.52;52.97;101532.44;5004306;28;20011;-66
2022/09/11 02:36:30;;;;;;;15.68;8.27;;;;;;;22.52;53.02;101532.44;4972348;28;20043;-65
2022/09/11 02:39:18;;;;;;;15.20;8.55;;;;;;;22.52;52.58;101537.06;4971516;28;20026;-67
2022/09/11 02:42:06;;;;;;;16.63;8.05;;;;;;;22.48;52.12;101525.66;4972431;28;20537;-68
2022/09/11 02:44:39;;;;;;;15.02;7.63;;;;;;;22.46;52.81;101538.66;4982323;28;20043;-65
2022/09/11 02:47:10;;;;;;;15.30;7.32;;;;;;;22.43;51.90;101535.47;4982488;28;20075;-64
2022/09/11 02:49:45;;;;;;;13.80;8.23;;;;;;;22.39;52.89;101542.34;4982514;28;20021;-65
2022/09/11 02:52:34;;;;;;;12.25;6.85;;;;;;;22.34;52.70;101540.16;4981941;28;20034;-64
2022/09/11 02:55:10;;;;;;;12.68;8.13;;;;;;;22.28;52.06;101540.91;4982362;28;20034;-65
2022/09/11 02:57:58;;;;;;;16.85;6.88;;;;;;;22.22;52.63;101552.56;4981899;28;20008;-65
2022/09/11 03:00:23;;;;;;;14.98;8.43;;;;;;;22.16;52.72;101547.88;4982232;28;20031;-66
2022/09/11 03:02:48;;;;;;;14.73;7.90;;;;;;;22.17;52.79;101555.03;4982123;28;20075;-63
2022/09/11 03:05:14;;;;;;;16.45;7.60;;;;;;;22.16;52.32;101558.81;4982182;28;20011;-65
2022/09/11 03:07:39;;;;;;;13.25;7.78;;;;;;;22.15;52.06;101551.63;4982176;28;20011;-64
2022/09/11 03:10:06;;;;;;;16.77;8.52;;;;;;;22.13;52.31;101553.72;4981596;28;20058;-64
2022/09/11 03:12:32;;;;;;;17.08;9.88;;;;;;;22.15;52.94;101553.50;4981837;28;20079;-64
2022/09/11 03:14:58;;;;;;;16.13;9.65;;;;;;;22.15;52.34;101545.31;4981904;28;20027;-65
2022/09/11 03:17:24;;;;;;;16.35;8.88;;;;;;;22.16;52.12;101547.88;4981854;28;20088;-65
2022/09/11 03:19:49;;;;;;;14.63;9.55;;;;;;;22.18;52.24;101553.16;4981773;28;20012;-65
2022/09/11 03:22:15;;;;;;;21.08;9.60;;;;;;;22.19;52.27;101550.25;5013767;28;20044;-64
2022/09/11 03:24:40;;;;;;;18.00;9.07;;;;;;;22.20;52.76;101554.66;4980338;28;20019;-65
2022/09/11 03:27:05;;;;;;;16.50;8.85;;;;;;;22.22;52.85;101552.56;4981415;28;20079;-65
2022/09/11 03:29:31;;;;;;;17.13;9.45;;;;;;;22.25;53.23;101551.38;5013302;28;20012;-64
2022/09/11 03:31:57;;;;;;;20.13;8.95;;;;;;;22.25;53.15;101552.19;4981595;28;20038;-65
2022/09/11 03:34:23;;;;;;;17.25;9.45;;;;;;;22.26;53.15;101548.44;4981115;28;20096;-63
2022/09/11 03:36:48;;;;;;;19.00;10.07;;;;;;;22.25;52.74;101551.38;4981703;28;20027;-65
2022/09/11 03:39:14;;;;;;;16.15;9.43;;;;;;;22.27;53.34;101547.44;4981005;28;20015;-64
2022/09/11 03:41:39;;;;;;;18.88;9.93;;;;;;;22.26;52.10;101553.91;4981527;28;20019;-65
2022/09/11 03:44:04;;;;;;;16.85;9.57;;;;;;;22.27;52.28;101549.31;4981497;28;20015;-64
2022/09/11 03:46:30;;;;;;;19.25;11.30;;;;;;;22.26;52.67;101553.91;4981410;28;20043;-64
2022/09/11 03:48:56;;;;;;;20.27;10.43;;;;;;;22.26;53.18;101553.91;4981247;28;20011;-63
2022/09/11 03:51:21;;;;;;;21.50;10.45;;;;;;;22.24;52.94;101556.00;4981083;28;20082;-65
2022/09/11 03:53:47;;;;;;;27.00;11.07;;;;;;;22.24;52.83;101556.00;4981118;28;20033;-64
2022/09/11 03:56:13;;;;;;;24.27;11.90;;;;;;;22.23;52.55;101548.81;4980557;28;20043;-65
2022/09/11 03:58:39;;;;;;;24.45;12.32;;;;;;;22.23;52.28;101554.28;4981111;28;20034;-65
2022/09/11 04:01:12;;;;;;;23.42;11.02;;;;;;;22.20;52.58;101554.66;4980816;28;20035;-64
2022/09/11 04:03:39;;;;;;;25.70;12.50;;;;;;;22.19;52.45;101544.78;4980580;28;20030;-65
2022/09/11 04:06:04;;;;;;;21.30;11.30;;;;;;;22.17;53.10;101540.53;4980954;28;20023;-64
2022/09/11 04:08:32;;;;;;;32.03;11.30;;;;;;;22.16;52.52;101541.56;4980455;28;20023;-65
2022/09/11 04:10:58;;;;;;;25.35;12.50;;;;;;;22.14;52.27;101544.47;4980740;28;20049;-65
2022/09/11 04:13:29;;;;;;;23.58;10.80;;;;;;;22.13;52.35;101550.13;5012861;28;20023;-64
2022/09/11 04:16:01;;;;;;;21.98;11.48;;;;;;;22.10;52.21;101551.34;4980458;28;20047;-64
2022/09/11 04:18:27;;;;;;;27.90;12.00;;;;;;;22.08;52.97;101545.25;4980349;28;20027;-64
2022/09/11 04:20:52;;;;;;;24.58;10.98;;;;;;;22.05;53.16;101545.63;4980743;28;20011;-65
2022/09/11 04:23:18;;;;;;;31.63;10.82;;;;;;;22.02;53.28;101548.72;4980245;28;20026;-65
2022/09/11 04:25:43;;;;;;;16.23;9.88;;;;;;;22.00;52.63;101556.22;4980210;28;20011;-64
2022/09/11 04:28:08;;;;;;;22.00;10.50;;;;;;;21.97;52.29;101556.63;4980763;28;20011;-65
2022/09/11 04:30:37;;;;;;;18.60;9.18;;;;;;;21.94;52.67;101554.25;4980692;28;20042;-64
2022/09/11 04:33:03;;;;;;;22.52;9.35;;;;;;;21.91;52.97;101555.47;4980715;28;20026;-64
2022/09/11 04:35:28;;;;;;;23.98;9.00;;;;;;;21.91;52.57;101554.63;4982141;28;20023;-65
2022/09/11 04:37:54;;;;;;;16.70;8.70;;;;;;;21.89;53.29;101559.41;4987080;28;20014;-65
2022/09/11 04:40:20;;;;;;;21.95;9.40;;;;;;;21.86;52.35;101554.31;4986762;28;20034;-64
2022/09/11 04:42:46;;;;;;;15.90;8.98;;;;;;;21.85;52.50;101560.78;4987179;28;20022;-64
2022/09/11 04:45:12;;;;;;;17.98;9.70;;;;;;;21.83;52.31;101563.69;4987154;28;20023;-65
2022/09/11 04:47:37;;;;;;;18.60;8.95;;;;;;;21.83;53.15;101568.31;4987092;28;20019;-64
2022/09/11 04:50:02;;;;;;;17.00;9.73;;;;;;;21.82;53.43;101572.91;4987132;28;20055;-66
2022/09/11 04:52:28;;;;;;;15.68;9.30;;;;;;;21.82;53.30;101567.47;4986975;28;20031;-65
2022/09/11 04:54:53;;;;;;;19.80;9.98;;;;;;;21.84;53.33;101559.06;4987023;28;20024;-63
2022/09/11 04:57:18;;;;;;;16.33;9.32;;;;;;;21.86;53.47;101567.94;4987020;28;20019;-64
2022/09/11 04:59:44;;;;;;;22.85;9.25;;;;;;;21.86;52.53;101565.22;4987111;28;20022;-64
2022/09/11 05:02:09;;;;;;;16.98;9.07;;;;;;;21.86;52.51;101568.78;4986510;28;20099;-65
2022/09/11 05:04:35;;;;;;;18.50;9.82;;;;;;;21.87;52.55;101570.50;5018864;28;20011;-64
2022/09/11 05:07:01;;;;;;;19.90;10.07;;;;;;;21.89;52.62;101578.50;4986916;28;20019;-65
2022/09/11 05:09:26;;;;;;;17.15;9.10;;;;;;;21.89;53.14;101581.22;4987000;28;20017;-65
2022/09/11 05:11:52;;;;;;;17.80;9.68;;;;;;;21.90;52.60;101585.66;4986804;28;20019;-65
2022/09/11 05:14:17;;;;;;;20.27;10.50;;;;;;;21.90;53.50;101581.06;4986958;28;20115;-64
2022/09/11 05:16:44;;;;;;;20.25;9.20;;;;;;;21.92;53.47;101586.31;4986896;28;20039;-65
2022/09/11 05:19:09;;;;;;;29.73;11.27;;;;;;;21.91;53.26;101590.09;4986566;28;20023;-65
2022/09/11 05:21:35;;;;;;;17.38;9.52;;;;;;;21.88;53.63;101587.72;4986749;28;20092;-64
2022/09/11 05:24:01;;;;;;;21.08;11.23;;;;;;;21.90;53.35;101602.03;4986378;28;20011;-66
2022/09/11 05:26:32;;;;;;;19.55;10.20;;;;;;;21.91;53.47;101596.41;5018888;28;20038;-65
2022/09/11 05:29:03;;;;;;;20.95;9.88;;;;;;;21.91;52.68;101610.03;5018690;28;20015;-64
2022/09/11 05:31:29;;;;;;;21.33;10.23;;;;;;;21.93;52.62;101607.13;4986439;28;20043;-65
2022/09/11 05:33:55;;;;;;;20.52;10.63;;;;;;;21.94;53.37;101612.38;4986210;28;20095;-63
2022/09/11 05:36:20;;;;;;;18.63;10.63;;;;;;;21.95;53.50;101605.03;5018646;28;20023;-63
2022/09/11 05:38:46;;;;;;;22.83;11.32;;;;;;;21.97;53.81;101620.19;4986129;28;20054;-63
2022/09/11 05:41:12;;;;;;;27.70;12.60;;;;;;;21.98;52.68;101626.50;4986520;28;20045;-67
2022/09/11 05:43:39;;;;;;;24.05;11.30;;;;;;;22.01;53.53;101621.53;4986591;28;20050;-64
2022/09/11 05:46:05;;;;;;;24.48;12.00;;;;;;;22.03;52.89;101629.53;4986151;28;20015;-65
2022/09/11 05:48:31;;;;;;;29.13;11.75;;;;;;;22.07;52.79;101633.59;4982671;28;20025;-64
2022/09/11 05:50:59;;;;;;;27.52;12.35;;;;;;;22.10;53.79;101627.78;4983426;28;20031;-66
2022/09/11 05:53:26;;;;;;;30.63;13.70;;;;;;;22.14;53.13;101641.91;4983521;28;20015;-65
2022/09/11 05:55:52;;;;;;;28.45;13.40;;;;;;;22.19;52.75;101640.31;4983003;28;20019;-64
2022/09/11 05:58:18;;;;;;;31.42;13.55;;;;;;;22.22;53.38;101645.38;4983034;28;20035;-65
2022/09/11 06:00:47;;;;;;;30.70;12.57;;;;;;;22.25;52.90;101647.75;4983433;28;20019;-65
2022/09/11 06:03:13;;;;;;;27.45;13.70;;;;;;;22.29;53.75;101651.81;4983256;28;20018;-66
2022/09/11 06:05:39;;;;;;;30.90;14.05;;;;;;;22.33;52.75;101653.16;4982744;28;20042;-65
2022/09/11 06:08:04;;;;;;;34.92;13.23;;;;;;;22.34;53.76;101660.28;4983170;28;20007;-65
2022/09/11 06:10:30;;;;;;;31.33;13.18;;;;;;;22.38;52.86;101667.09;4982982;28;20019;-64
2022/09/11 06:12:56;;;;;;;31.50;12.40;;;;;;;22.41;53.64;101672.19;4982488;29;20046;-65
2022/09/11 06:15:21;;;;;;;28.30;13.20;;;;;;;22.44;52.87;101666.34;4983118;28;20030;-64
2022/09/11 06:17:47;;;;;;;28.20;11.93;;;;;;;22.44;53.65;101669.09;4983006;28;20082;-64
2022/09/11 06:20:12;;;;;;;30.10;12.82;;;;;;;22.46;52.88;101672.47;4982572;28;20023;-65
2022/09/11 06:22:38;;;;;;;31.50;12.18;;;;;;;22.47;53.31;101665.94;4983005;28;20019;-65
2022/09/11 06:25:04;;;;;;;30.52;13.45;;;;;;;22.53;52.74;101670.66;4982502;28;20046;-64
2022/09/11 06:27:29;;;;;;;29.05;12.85;;;;;;;22.58;53.28;101679.16;4982853;28;20022;-67
2022/09/11 06:29:55;;;;;;;32.65;13.38;;;;;;;22.64;52.71;101676.75;4982190;28;20043;-65
2022/09/11 06:32:20;;;;;;;31.90;14.55;;;;;;;22.66;53.14;101680.16;4982600;28;20014;-63
2022/09/11 06:34:46;;;;;;;28.83;13.55;;;;;;;22.71;52.48;101677.69;4982718;28;20015;-64
2022/09/11 06:37:11;;;;;;;29.98;13.40;;;;;;;22.74;53.06;101682.78;4982416;28;20043;-65
2022/09/11 06:39:37;;;;;;;28.08;13.45;;;;;;;22.77;53.72;101679.69;4981922;28;20023;-67
2022/09/11 06:42:02;;;;;;;25.60;11.73;;;;;;;22.79;53.66;101680.34;4982693;28;20016;-65
2022/09/11 06:44:28;;;;;;;22.75;11.10;;;;;;;22.82;53.54;101672.63;4982341;28;20031;-65
2022/09/11 06:46:54;;;;;;;23.92;11.80;;;;;;;22.90;52.64;101671.66;4982375;28;20016;-65
2022/09/11 06:49:19;;;;;;;30.45;12.20;;;;;;;22.97;52.69;101673.47;4982443;28;20047;-64
2022/09/11 06:51:46;;;;;;;26.25;12.60;;;;;;;23.01;53.37;101673.91;4981810;28;20022;-65
2022/09/11 06:54:12;;;;;;;33.50;13.02;;;;;;;23.05;53.43;101680.72;4982304;28;20074;-64
2022/09/11 06:56:37;;;;;;;27.23;12.52;;;;;;;23.07;52.62;101673.16;4982326;28;20023;-64
2022/09/11 06:59:02;;;;;;;26.85;11.35;;;;;;;23.12;52.95;101684.38;4982136;28;20043;-64
2022/09/11 07:01:28;;;;;;;25.17;13.30;;;;;;;23.16;52.59;101685.72;4982204;28;20031;-65
2022/09/11 07:03:54;;;;;;;29.13;13.05;;;;;;;23.20;52.41;101685.13;4982234;28;20011;-64
2022/09/11 07:06:24;;;;;;;29.67;14.30;;;;;;;23.26;52.46;101690.84;4965599;28;20042;-65
2022/09/11 07:08:59;;;;;;;33.60;14.40;;;;;;;23.29;52.96;101691.34;4982066;28;20039;-66
2022/09/11 07:11:25;;;;;;;27.52;12.45;;;;;;;23.33;53.01;101692.66;4962650;28;20083;-64
2022/09/11 07:13:50;;;;;;;26.85;12.82;;;;;;;23.39;52.56;101694.66;4962721;28;20015;-64
2022/09/11 07:16:15;;;;;;;24.75;10.88;;;;;;;23.43;52.47;101695.97;4962712;28;20022;-65
2022/09/11 07:18:43;;;;;;;24.83;11.15;;;;;;;23.46;52.18;101690.13;4978028;28;20012;-65
2022/09/11 07:21:15;;;;;;;20.40;10.63;;;;;;;23.49;52.50;101695.19;4962165;28;20039;-66
2022/09/11 07:23:41;;;;;;;20.73;10.02;;;;;;;23.53;52.10;101696.53;4962450;28;20027;-64
2022/09/11 07:26:09;;;;;;;18.25;9.90;;;;;;;23.53;52.33;101696.53;4962567;28;20016;-64
2022/09/11 07:28:36;;;;;;;20.10;10.18;;;;;;;23.57;52.03;101697.81;4962486;28;20019;-65
2022/09/11 07:31:09;;;;;;;23.15;10.95;;;;;;;23.62;52.60;101695.34;4977639;28;20039;-66
2022/09/11 07:33:35;;;;;;;18.90;10.05;;;;;;;23.68;51.97;101700.06;4977169;28;20030;-66
2022/09/11 07:36:10;;;;;;;20.70;10.55;;;;;;;23.75;52.64;101703.72;4981569;28;20023;-65
2022/09/11 07:38:36;;;;;;;21.73;10.25;;;;;;;23.82;51.69;101694.72;4981181;28;20020;-64
2022/09/11 07:41:02;;;;;;;19.65;10.07;;;;;;;23.93;52.06;101706.00;4981549;28;20015;-65
2022/09/11 07:43:27;;;;;;;18.60;10.75;;;;;;;24.00;52.48;101704.19;4981413;28;20039;-66
2022/09/11 07:45:53;;;;;;;18.10;10.38;;;;;;;24.11;52.30;101694.63;4981376;28;20046;-64
2022/09/11 07:48:18;;;;;;;21.52;10.07;;;;;;;24.26;51.76;101692.69;4981327;28;20023;-64
2022/09/11 07:51:03;;;;;;;21.45;11.85;;;;;;;24.31;52.05;101693.78;5017388;23;20093;-64
2022/09/11 07:53:33;;;;;;;20.02;10.80;;;;;;;24.43;51.73;101690.50;4964630;28;20031;-65
2022/09/11 07:56:03;;;;;;;28.25;12.13;;;;;;;24.54;51.37;101690.78;4981315;28;20096;-65
2022/09/11 07:58:33;;;;;;;25.52;12.57;;;;;;;24.57;51.67;101700.47;4980841;28;20019;-65
2022/09/11 08:01:01;;;;;;;24.77;11.23;;;;;;;24.62;51.48;101698.00;4980778;28;20035;-65
2022/09/11 08:03:26;;;;;;;22.80;12.10;;;;;;;24.84;51.49;101706.00;4980655;28;20042;-65
2022/09/11 08:05:59;;;;;;;23.63;10.52;;;;;;;25.04;50.88;101697.91;4980712;28;20019;-64
2022/09/11 08:08:25;;;;;;;21.25;10.98;;;;;;;25.13;51.04;101709.53;4980644;28;20020;-64
2022/09/11 08:10:50;;;;;;;22.30;11.05;;;;;;;25.12;51.15;101705.97;4980068;28;20030;-65
2022/09/11 08:13:16;;;;;;;22.73;10.85;;;;;;;25.13;51.36;101707.63;4981004;28;20018;-65
2022/09/11 08:15:48;;;;;;;23.98;11.50;;;;;;;25.15;51.22;101710.19;4981047;28;20015;-65
2022/09/11 08:18:13;;;;;;;21.20;9.88;;;;;;;25.16;51.22;101709.97;4980975;28;20038;-65
2022/09/11 08:20:39;;;;;;;21.50;10.60;;;;;;;25.18;51.41;101709.78;4980551;29;20021;-65
2022/09/11 08:23:05;;;;;;;21.08;10.98;;;;;;;25.20;51.04;101719.50;4980933;28;20011;-65
2022/09/11 08:25:30;;;;;;;21.10;10.35;;;;;;;25.23;50.87;101713.63;4980266;28;20011;-64
2022/09/11 08:27:55;;;;;;;21.63;11.13;;;;;;;25.25;50.78;101719.72;4980767;28;20043;-64
2022/09/11 08:30:21;;;;;;;20.40;11.45;;;;;;;25.27;51.16;101722.25;4980830;28;20020;-64
2022/09/11 08:32:46;;;;;;;23.25;10.27;;;;;;;25.28;50.93;101726.72;4980364;28;20042;-63
2022/09/11 08:35:12;;;;;;;23.90;11.05;;;;;;;25.30;50.50;101724.59;4991669;23;20051;-68
2022/09/11 08:37:37;;;;;;;20.02;9.48;;;;;;;25.34;50.44;101734.97;4960575;28;20024;-65
2022/09/11 08:40:03;;;;;;;19.70;9.30;;;;;;;25.45;50.74;101722.56;4960977;28;20016;-64
2022/09/11 08:42:29;;;;;;;20.98;10.07;;;;;;;25.55;50.49;101725.78;4961102;28;20031;-66
2022/09/11 08:44:57;;;;;;;19.80;9.73;;;;;;;25.65;50.53;101728.16;4961062;28;20032;-64
2022/09/11 08:47:31;;;;;;;20.52;9.95;;;;;;;25.76;49.95;101727.56;4961159;28;20012;-64
2022/09/11 08:50:07;;;;;;;21.67;9.93;;;;;;;25.89;49.83;101733.94;4960942;28;20086;-65
2022/09/11 08:52:34;;;;;;;23.05;10.27;;;;;;;26.02;50.02;101731.22;4960773;28;20015;-65
2022/09/11 08:55:01;;;;;;;18.33;10.05;;;;;;;26.29;49.83;101736.78;4945030;28;20054;-64
2022/09/11 08:57:54;;;;;;;17.75;9.50;;;;;;;26.44;48.95;101735.50;4960814;28;20070;-65
2022/09/11 09:00:22;;;;;;;17.38;9.63;;;;;;;26.60;49.35;101734.25;4961072;28;20031;-65
2022/09/11 09:03:12;;;;;;;18.55;8.98;;;;;;;26.76;48.62;101730.22;4960959;28;20093;-66
2022/09/11 09:05:44;;;;;;;15.02;8.98;;;;;;;27.10;48.64;101732.75;4961249;28;20048;-65
2022/09/11 09:08:36;;;;;;;15.48;8.13;;;;;;;27.32;48.68;101736.91;4961150;28;20035;-65
2022/09/11 09:11:35;;;;;;;18.63;8.95;;;;;;;27.43;48.80;101735.41;4960927;28;20038;-66
2022/09/11 09:14:19;;;;;;;15.48;8.07;;;;;;;27.48;48.26;101738.34;4963736;28;20047;-65
2022/09/11 09:16:52;;;;;;;15.07;8.68;;;;;;;27.51;47.82;101743.41;4961060;28;20023;-64
2022/09/11 09:19:22;;;;;;;15.05;7.97;;;;;;;27.63;47.58;101744.44;4960537;28;20041;-66
2022/09/11 09:22:03;;;;;;;13.68;8.10;;;;;;;28.36;46.27;101742.97;4961012;28;20040;-65
2022/09/11 09:24:33;;;;;;;12.07;7.57;;;;;;;28.29;47.21;101740.25;4964742;28;20016;-65
2022/09/11 09:27:02;;;;;;;13.38;7.53;;;;;;;28.22;47.43;101744.97;4964251;28;20035;-65
2022/09/11 09:29:35;;;;;;;12.20;7.55;;;;;;;28.12;47.63;101741.84;4964073;29;20016;-65
2022/09/11 09:32:05;;;;;;;14.13;7.30;;;;;;;27.98;47.86;101751.22;4964313;28;20031;-67
2022/09/11 09:34:33;;;;;;;11.75;6.90;;;;;;;27.83;47.46;101753.44;4963989;28;20044;-66
2022/09/11 09:37:21;;;;;;;14.85;7.07;;;;;;;27.66;47.98;101752.25;4963759;28;20031;-65
2022/09/11 09:39:47;;;;;;;13.25;7.10;;;;;;;27.52;47.36;101747.88;4964335;29;20021;-66
2022/09/11 09:42:22;;;;;;;11.60;7.18;;;;;;;27.42;47.92;101747.47;4948044;29;20026;-64
2022/09/11 09:45:25;;;;;;;10.85;6.55;;;;;;;27.36;47.08;101745.59;4964214;28;20024;-65
2022/09/11 09:47:50;;;;;;;11.50;6.72;;;;;;;27.33;46.79;101741.31;4964376;28;20032;-64
2022/09/11 09:50:16;;;;;;;11.65;5.30;;;;;;;27.40;46.58;101747.66;4964264;28;20047;-65
2022/09/11 09:52:42;;;;;;;12.13;6.45;;;;;;;27.44;46.33;101737.97;4963988;28;20040;-64
2022/09/11 09:55:13;;;;;;;11.60;6.65;;;;;;;27.53;46.54;101755.06;4963505;28;20052;-63
2022/09/11 09:57:39;;;;;;;9.00;5.63;;;;;;;27.65;46.11;101750.56;4964015;28;20047;-63
2022/09/11 10:00:08;;;;;;;9.48;5.78;;;;;;;27.84;46.04;101754.28;4963909;28;20293;-64
2022/09/11 10:02:44;;;;;;;8.93;4.95;;;;;;;27.95;46.30;101756.31;4963852;29;20039;-63
2022/09/11 10:05:15;;;;;;;9.65;4.93;;;;;;;28.00;45.99;101757.34;4963788;28;20032;-64
2022/09/11 10:07:48;;;;;;;8.30;5.40;;;;;;;28.09;45.70;101756.06;4960661;29;20560;-61
2022/09/11 10:10:29;;;;;;;9.43;5.25;;;;;;;28.27;45.33;101756.16;4963357;28;20048;-62
2022/09/11 10:13:13;;;;;;;10.32;5.30;;;;;;;28.31;45.35;101762.06;4963512;28;20030;-62
2022/09/11 10:15:39;;;;;;;6.30;4.82;;;;;;;28.35;45.26;101762.47;4963205;29;20011;-65
2022/09/11 10:18:33;;;;;;;10.10;4.85;;;;;;;28.34;46.00;101755.28;4962798;28;20042;-63
2022/09/11 10:21:23;;;;;;;9.63;4.80;;;;;;;28.40;46.19;101754.38;4962005;29;20016;-66
2022/09/11 10:24:25;;;;;;;8.93;4.63;;;;;;;28.71;44.77;101765.38;4962344;28;20039;-63
2022/09/11 10:26:52;;;;;;;11.10;5.15;;;;;;;28.87;45.46;101756.53;4962711;28;20075;-64
2022/09/11 10:29:28;;;;;;;6.88;4.43;;;;;;;29.09;45.25;101751.44;4962605;28;20043;-64
2022/09/11 10:31:56;;;;;;;9.35;5.18;;;;;;;29.35;44.90;101756.69;4962567;28;20023;-64
2022/09/11 10:34:23;;;;;;;11.77;5.05;;;;;;;29.48;44.55;101752.94;4962286;28;20043;-63
2022/09/11 10:37:00;;;;;;;10.73;5.35;;;;;;;29.74;43.86;101753.44;4961721;28;20052;-63
2022/09/11 10:39:29;;;;;;;9.55;4.95;;;;;;;29.62;44.20;101757.22;4962936;28;20036;-63
2022/09/11 10:41:58;;;;;;;11.38;5.68;;;;;;;29.57;44.34;101760.66;4963047;28;20039;-63
2022/09/11 10:44:25;;;;;;;8.55;4.82;;;;;;;29.62;43.99;101760.00;4962522;28;20039;-63
2022/09/11 10:47:26;;;;;;;9.82;4.95;;;;;;;30.73;41.83;101752.81;4962058;29;20043;-63
2022/09/11 10:52:28;;;;;;;8.73;5.30;;;;;;;31.07;41.98;101746.44;5308795;23;20147;-61
2022/09/11 10:55:05;;;;;;;8.20;5.10;;;;;;;31.49;41.27;101751.84;4952569;29;20047;-60
2022/09/11 10:57:36;;;;;;;9.57;4.60;;;;;;;32.17;40.76;101749.91;4950436;29;20031;-59
2022/09/11 11:00:23;;;;;;;7.43;3.53;;;;;;;31.75;41.80;101750.41;4938174;29;20032;-62
2022/09/11 11:13:24;;;;;;;7.55;4.38;;;;;;;34.00;37.56;101731.25;4954913;28;20336;-90
2022/09/11 11:16:38;;;;;;;7.25;4.20;;;;;;;33.30;39.04;101673.69;4951205;29;20048;-90
2022/09/11 11:19:09;;;;;;;5.65;4.22;;;;;;;34.56;37.61;101736.25;4950789;29;20032;-90
2022/09/11 11:21:48;;;;;;;5.17;4.03;;;;;;;35.10;36.79;101736.94;4953229;29;20044;-91
2022/09/11 11:24:51;;;;;;;6.13;4.50;;;;;;;35.66;36.61;101740.84;4951650;29;20131;-92
2022/09/11 11:28:07;;;;;;;7.00;4.65;;;;;;;35.69;36.66;101734.72;4957343;29;20448;-91
2022/09/11 11:30:54;;;;;;;5.90;4.15;;;;;;;36.34;36.00;101719.25;4958156;29;20012;-91
2022/09/11 11:33:49;;;;;;;7.18;3.75;;;;;;;35.96;35.37;101682.34;4926481;29;20054;-91
2022/09/11 11:37:07;;;;;;;4.90;3.28;;;;;;;36.09;36.00;101740.44;4957204;28;20023;-91
2022/09/11 12:07:58;;;;;;;7.43;3.28;;;;;;;38.56;31.62;101656.75;4955623;28;20059;-90
2022/09/11 12:10:38;;;;;;;5.95;3.72;;;;;;;38.95;31.63;101705.94;4956232;29;20087;-91
2022/09/11 12:13:30;;;;;;;5.97;3.85;;;;;;;38.83;31.28;101668.25;4943877;29;20026;-90